createdAt,value
2018-06-05T00:00:12.143Z,18.65
2018-06-05T00:02:40.204Z,13.18
2018-06-05T00:05:08.264Z,17.75
2018-06-05T00:07:36.324Z,15.58
2018-06-05T00:10:04.501Z,14.28
2018-06-05T00:12:32.543Z,10.20
2018-06-05T00:15:00.604Z,13.53
2018-06-05T00:17:28.688Z,10.63
2018-06-05T00:19:56.748Z,13.95
2018-06-05T00:22:24.803Z,11.93
2018-06-05T00:24:52.876Z,11.45
2018-06-05T00:27:20.925Z,12.30
2018-06-05T00:29:48.981Z,14.30
2018-06-05T00:32:17.068Z,11.60
2018-06-05T00:34:45.119Z,18.45
2018-06-05T00:37:13.177Z,12.82
2018-06-05T00:39:41.239Z,13.18
2018-06-05T00:42:09.290Z,12.13
2018-06-05T00:44:37.340Z,12.95
2018-06-05T00:47:05.432Z,13.65
2018-06-05T00:49:33.488Z,8.90
2018-06-05T00:52:09.193Z,9.65
2018-06-05T00:54:37.236Z,7.42
2018-06-05T00:57:05.373Z,7.12
2018-06-05T00:59:33.460Z,5.70
2018-06-05T01:02:01.521Z,6.65
2018-06-05T01:04:29.567Z,8.98
2018-06-05T01:06:57.620Z,6.92
2018-06-05T01:09:25.660Z,7.97
2018-06-05T01:11:53.718Z,9.70
2018-06-05T01:14:21.750Z,8.18
2018-06-05T01:16:49.820Z,7.45
2018-06-05T01:19:17.908Z,7.45
2018-06-05T01:21:45.970Z,8.05
2018-06-05T01:24:14.004Z,8.15
2018-06-05T01:26:42.056Z,7.28
2018-06-05T01:29:10.089Z,6.58
2018-06-05T01:31:38.140Z,7.47
2018-06-05T01:34:06.196Z,8.50
2018-06-05T01:36:34.264Z,9.43
2018-06-05T01:39:02.352Z,10.93
2018-06-05T01:41:30.395Z,9.95
2018-06-05T01:43:58.447Z,8.75
2018-06-05T01:46:26.502Z,9.90
2018-06-05T01:48:54.564Z,9.35
2018-06-05T01:51:22.616Z,15.65
2018-06-05T01:53:50.689Z,10.68
2018-06-05T01:56:18.736Z,10.82
2018-06-05T01:58:46.792Z,10.23
2018-06-05T02:01:14.840Z,11.15
2018-06-05T02:03:42.891Z,10.65
2018-06-05T02:06:10.939Z,10.00
2018-06-05T02:08:38.968Z,7.92
2018-06-05T02:11:07.033Z,9.75
2018-06-05T02:13:35.068Z,9.58
2018-06-05T02:16:03.125Z,7.70
2018-06-05T02:18:31.163Z,10.98
2018-06-05T02:20:59.216Z,10.05
2018-06-05T02:23:27.273Z,10.98
2018-06-05T02:25:55.328Z,6.15
2018-06-05T02:28:23.375Z,5.85
2018-06-05T02:30:51.434Z,12.95
2018-06-05T02:33:19.477Z,11.48
2018-06-05T02:35:47.528Z,6.70
2018-06-05T02:38:15.560Z,6.60
2018-06-05T02:40:43.730Z,11.48
2018-06-05T02:43:11.784Z,7.45
2018-06-05T02:45:39.840Z,10.00
2018-06-05T02:48:07.912Z,10.10
2018-06-05T02:50:35.964Z,5.15
2018-06-05T02:53:04.028Z,7.30
2018-06-05T02:55:32.092Z,7.17
2018-06-05T02:58:00.132Z,9.45
2018-06-05T03:00:28.173Z,9.33
2018-06-05T03:02:56.216Z,6.62
2018-06-05T03:05:24.272Z,11.63
2018-06-05T03:07:52.307Z,7.03
2018-06-05T03:10:20.365Z,8.95
2018-06-05T03:12:48.416Z,9.45
2018-06-05T03:15:16.461Z,8.98
2018-06-05T03:17:44.519Z,11.95
2018-06-05T03:20:12.580Z,9.23
2018-06-05T03:22:40.661Z,7.30
2018-06-05T03:25:08.711Z,9.20
2018-06-05T03:27:36.763Z,8.25
2018-06-05T03:30:05.245Z,10.18
2018-06-05T03:32:33.300Z,11.48
2018-06-05T03:35:01.358Z,13.85
2018-06-05T03:37:29.398Z,11.95
2018-06-05T03:39:57.448Z,9.40
2018-06-05T03:42:25.498Z,13.43
2018-06-05T03:44:53.557Z,12.37
2018-06-05T03:47:21.620Z,8.08
2018-06-05T03:49:49.656Z,10.48
2018-06-05T03:52:17.716Z,9.33
2018-06-05T03:54:45.758Z,11.78
2018-06-05T03:57:13.816Z,12.37
2018-06-05T03:59:41.865Z,10.50
2018-06-05T04:02:09.921Z,8.40
2018-06-05T04:04:37.955Z,8.68
2018-06-05T04:07:06.016Z,11.80
2018-06-05T04:09:34.087Z,9.35
2018-06-05T04:12:02.144Z,8.93
2018-06-05T04:14:30.196Z,13.40
2018-06-05T04:16:58.280Z,9.63
2018-06-05T04:19:26.340Z,11.85
2018-06-05T04:21:54.409Z,13.05
2018-06-05T04:24:22.455Z,14.83
2018-06-05T04:26:50.518Z,15.95
2018-06-05T04:29:18.563Z,14.43
2018-06-05T04:31:46.622Z,14.90
2018-06-05T04:34:14.672Z,13.72
2018-06-05T04:36:42.725Z,13.10
2018-06-05T04:39:10.765Z,12.10
2018-06-05T04:41:38.825Z,13.18
2018-06-05T04:44:06.875Z,13.62
2018-06-05T04:46:34.947Z,13.80
2018-06-05T04:49:02.979Z,10.48
2018-06-05T04:51:31.023Z,14.00
2018-06-05T04:53:59.055Z,15.30
2018-06-05T04:56:27.111Z,14.23
2018-06-05T04:58:55.132Z,14.78
2018-06-05T05:01:23.184Z,11.43
2018-06-05T05:03:51.231Z,10.10
2018-06-05T05:06:19.303Z,10.63
2018-06-05T05:08:47.379Z,12.47
2018-06-05T05:11:15.464Z,11.15
2018-06-05T05:13:43.539Z,11.97
2018-06-05T05:16:11.579Z,8.93
2018-06-05T05:18:39.651Z,10.48
2018-06-05T05:21:07.705Z,6.97
2018-06-05T05:23:35.741Z,8.90
2018-06-05T05:26:03.808Z,7.97
2018-06-05T05:28:31.843Z,8.20
2018-06-05T05:30:59.892Z,7.75
2018-06-05T05:33:27.972Z,9.00
2018-06-05T05:35:56.015Z,9.03
2018-06-05T05:38:24.073Z,7.67
2018-06-05T05:40:52.157Z,11.30
2018-06-05T05:43:20.203Z,5.85
2018-06-05T05:45:48.256Z,10.98
2018-06-05T05:48:16.336Z,9.75
2018-06-05T05:50:44.400Z,10.48
2018-06-05T05:53:12.464Z,11.30
2018-06-05T05:55:40.506Z,8.43
2018-06-05T05:58:08.552Z,9.48
2018-06-05T06:00:36.596Z,8.18
2018-06-05T06:03:04.676Z,10.50
2018-06-05T06:05:32.740Z,9.18
2018-06-05T06:08:00.780Z,8.58
2018-06-05T06:10:28.844Z,9.03
2018-06-05T06:12:56.904Z,8.13
2018-06-05T06:15:24.959Z,10.53
2018-06-05T06:17:53.028Z,9.90
2018-06-05T06:20:21.123Z,8.85
2018-06-05T06:22:49.185Z,8.85
2018-06-05T06:25:17.229Z,8.10
2018-06-05T06:27:45.302Z,5.50
2018-06-05T06:30:13.353Z,8.68
2018-06-05T06:32:41.412Z,11.97
2018-06-05T06:35:09.449Z,5.55
2018-06-05T06:37:37.496Z,9.50
2018-06-05T06:40:05.601Z,7.83
2018-06-05T06:42:33.683Z,9.08
2018-06-05T06:45:01.733Z,10.05
2018-06-05T06:47:29.788Z,9.80
2018-06-05T06:49:57.863Z,11.20
2018-06-05T06:52:25.936Z,10.25
2018-06-05T06:54:53.983Z,8.80
2018-06-05T06:57:22.039Z,8.35
2018-06-05T06:59:50.079Z,8.65
2018-06-05T07:02:19.111Z,12.47
2018-06-05T07:04:47.165Z,12.35
2018-06-05T07:07:15.232Z,7.90
2018-06-05T07:09:43.292Z,9.38
2018-06-05T07:12:11.390Z,9.83
2018-06-05T07:14:39.402Z,8.65
2018-06-05T07:17:07.865Z,10.00
2018-06-05T07:19:35.904Z,13.43
2018-06-05T07:22:03.992Z,10.82
2018-06-05T07:24:32.062Z,8.85
2018-06-05T07:27:00.136Z,10.35
2018-06-05T07:29:28.203Z,8.73
2018-06-05T07:31:56.299Z,10.58
2018-06-05T07:34:24.360Z,12.65
2018-06-05T07:36:52.425Z,14.90
2018-06-05T07:39:20.482Z,13.40
2018-06-05T07:41:48.572Z,16.70
2018-06-05T07:44:16.655Z,14.43
2018-06-05T07:46:44.709Z,21.85
2018-06-05T07:49:12.776Z,19.23
2018-06-05T07:51:40.840Z,25.40
2018-06-05T07:54:08.909Z,16.55
2018-06-05T07:56:36.981Z,14.65
2018-06-05T07:59:05.052Z,16.17
2018-06-05T08:01:33.116Z,14.35
2018-06-05T08:04:01.191Z,20.43
2018-06-05T08:06:29.254Z,15.20
2018-06-05T08:08:57.326Z,17.87
2018-06-05T08:11:25.371Z,12.88
2018-06-05T08:13:53.435Z,14.55
2018-06-05T08:16:21.508Z,13.53
2018-06-05T08:18:49.609Z,13.05
2018-06-05T08:21:17.676Z,21.48
2018-06-05T08:23:45.743Z,15.93
2018-06-05T08:26:13.788Z,16.23
2018-06-05T08:28:41.876Z,19.85
2018-06-05T08:31:10.000Z,15.03
2018-06-05T08:33:38.065Z,20.23
2018-06-05T08:36:06.127Z,29.02
2018-06-05T08:38:35.129Z,29.85
2018-06-05T08:41:03.188Z,39.33
2018-06-05T08:43:31.268Z,27.50
2018-06-05T08:45:59.316Z,23.90
2018-06-05T08:48:27.387Z,25.08
2018-06-05T08:50:55.426Z,26.77
2018-06-05T08:53:23.488Z,30.95
2018-06-05T08:55:51.596Z,25.57
2018-06-05T08:58:19.659Z,37.25
2018-06-05T09:00:47.729Z,39.98
2018-06-05T09:03:15.812Z,33.78
2018-06-05T09:05:43.868Z,33.83
2018-06-05T09:08:11.972Z,33.92
2018-06-05T09:10:40.020Z,37.78
2018-06-05T09:13:08.084Z,43.30
2018-06-05T09:15:36.132Z,30.50
2018-06-05T09:18:04.217Z,33.98
2018-06-05T09:20:32.273Z,38.33
2018-06-05T09:23:00.391Z,32.70
2018-06-05T09:25:28.456Z,42.48
2018-06-05T09:27:56.568Z,50.33
2018-06-05T09:30:24.633Z,38.80
2018-06-05T09:32:52.681Z,35.95
2018-06-05T09:35:20.763Z,51.88
2018-06-05T09:37:48.817Z,56.25
2018-06-05T09:40:16.881Z,47.83
2018-06-05T09:42:44.953Z,31.80
2018-06-05T09:45:13.092Z,45.08
2018-06-05T09:47:41.174Z,65.20
2018-06-05T09:50:09.251Z,44.50
2018-06-05T09:52:37.296Z,54.67
2018-06-05T09:55:05.359Z,37.90
2018-06-05T09:57:33.479Z,47.80
2018-06-05T10:00:01.512Z,47.53
2018-06-05T10:02:29.576Z,42.53
2018-06-05T10:04:57.638Z,610.37
2018-06-05T10:07:25.718Z,459.13
2018-06-05T10:09:53.795Z,339.60
2018-06-05T10:12:21.871Z,127.12
2018-06-05T10:14:50.000Z,89.28
2018-06-05T10:17:18.104Z,80.03
2018-06-05T10:19:46.188Z,62.80
2018-06-05T10:22:14.217Z,76.95
2018-06-05T10:24:42.271Z,65.87
2018-06-05T10:27:10.484Z,57.73
2018-06-05T10:29:38.524Z,43.10
2018-06-05T10:32:06.608Z,69.35
2018-06-05T10:34:34.700Z,52.38
2018-06-05T10:37:02.726Z,50.65
2018-06-05T10:39:30.784Z,51.00
2018-06-05T10:41:58.893Z,48.68
2018-06-05T10:44:26.974Z,67.82
2018-06-05T10:46:55.033Z,60.98
2018-06-05T10:49:23.112Z,57.05
2018-06-05T10:51:51.183Z,56.95
2018-06-05T10:54:19.256Z,63.23
2018-06-05T10:56:47.288Z,52.45
2018-06-05T10:59:15.391Z,49.15
2018-06-05T11:01:43.426Z,57.78
2018-06-05T11:04:11.580Z,45.80
2018-06-05T11:06:39.617Z,67.95
2018-06-05T11:09:08.209Z,71.42
2018-06-05T11:11:36.255Z,58.63
2018-06-05T11:14:04.328Z,40.15
2018-06-05T11:16:32.372Z,52.38
2018-06-05T11:19:00.564Z,55.95
2018-06-05T11:21:28.636Z,58.00
2018-06-05T11:23:56.681Z,80.00
2018-06-05T11:26:24.745Z,59.83
2018-06-05T11:28:52.848Z,77.97
2018-06-05T11:31:20.911Z,64.20
2018-06-05T11:33:48.999Z,56.88
2018-06-05T11:36:17.062Z,64.32
2018-06-05T11:38:45.120Z,72.60
2018-06-05T11:41:13.174Z,68.97
2018-06-05T11:43:41.231Z,60.15
2018-06-05T11:46:09.402Z,64.45
2018-06-05T11:48:37.503Z,61.68
2018-06-05T11:51:05.646Z,56.70
2018-06-05T11:53:33.752Z,63.90
2018-06-05T11:56:01.826Z,63.73
2018-06-05T11:58:29.909Z,79.20
2018-06-05T12:00:57.974Z,84.13
2018-06-05T12:03:26.034Z,66.33
2018-06-05T12:05:54.092Z,56.73
2018-06-05T12:08:22.157Z,42.43
2018-06-05T12:10:50.289Z,46.15
2018-06-05T12:13:18.356Z,52.15
2018-06-05T12:15:46.459Z,48.53
2018-06-05T12:18:14.568Z,33.43
2018-06-05T12:20:42.643Z,47.88
2018-06-05T12:23:10.720Z,45.93
2018-06-05T12:25:38.799Z,50.53
2018-06-05T12:28:06.864Z,42.50
2018-06-05T12:30:34.944Z,47.63
2018-06-05T12:33:03.003Z,67.30
2018-06-05T12:35:31.076Z,65.27
2018-06-05T12:37:59.120Z,67.60
2018-06-05T12:40:27.238Z,60.17
2018-06-05T12:42:55.242Z,53.30
2018-06-05T12:45:23.308Z,79.90
2018-06-05T12:47:51.351Z,76.60
2018-06-05T12:50:19.449Z,78.27
2018-06-05T12:52:47.525Z,55.10
2018-06-05T12:55:15.590Z,68.13
2018-06-05T12:57:43.636Z,53.50
2018-06-05T13:00:11.704Z,61.30
2018-06-05T13:02:39.764Z,57.77
2018-06-05T13:05:07.814Z,61.90
2018-06-05T13:07:35.876Z,74.07
2018-06-05T13:10:03.977Z,68.43
2018-06-05T13:12:32.044Z,75.10
2018-06-05T13:15:00.133Z,67.73
2018-06-05T13:17:28.259Z,64.13
2018-06-05T13:19:56.267Z,71.40
2018-06-05T13:22:24.347Z,73.97
2018-06-05T13:24:52.397Z,94.43
2018-06-05T13:27:20.456Z,73.63
2018-06-05T13:29:48.517Z,57.93
2018-06-05T13:32:16.588Z,44.93
2018-06-05T13:34:44.644Z,50.23
2018-06-05T13:37:12.715Z,64.40
2018-06-05T13:39:40.764Z,48.00
2018-06-05T13:42:08.857Z,51.93
2018-06-05T13:44:36.917Z,49.43
2018-06-05T13:47:05.092Z,46.40
2018-06-05T13:49:33.156Z,58.40
2018-06-05T13:52:01.221Z,92.87
2018-06-05T13:54:29.293Z,71.93
2018-06-05T13:56:57.357Z,75.60
2018-06-05T13:59:25.414Z,71.23
2018-06-05T14:01:53.492Z,66.80
2018-06-05T14:04:21.524Z,86.87
2018-06-05T14:06:49.631Z,80.03
2018-06-05T14:09:17.740Z,84.97
2018-06-05T14:11:45.734Z,82.60
2018-06-05T14:14:13.843Z,58.97
2018-06-05T14:16:41.892Z,77.80
2018-06-05T14:19:09.979Z,74.90
2018-06-05T14:21:38.056Z,69.67
2018-06-05T14:24:06.100Z,74.83
2018-06-05T14:26:34.161Z,72.33
2018-06-05T14:29:02.255Z,70.23
2018-06-05T14:31:30.388Z,84.33
2018-06-05T14:33:58.501Z,90.67
2018-06-05T14:36:26.548Z,72.93
2018-06-05T14:38:54.588Z,87.27
2018-06-05T14:41:22.645Z,59.50
2018-06-05T14:43:50.682Z,93.67
2018-06-05T14:46:18.725Z,81.10
2018-06-05T14:48:46.924Z,80.07
2018-06-05T14:51:14.956Z,87.17
2018-06-05T14:53:43.088Z,105.50
2018-06-05T14:56:11.132Z,88.10
2018-06-05T14:58:39.183Z,75.97
2018-06-05T15:01:07.277Z,58.63
2018-06-05T15:03:35.424Z,115.97
2018-06-05T15:06:03.516Z,90.73
2018-06-05T15:08:31.696Z,107.10
2018-06-05T15:10:59.752Z,65.60
2018-06-05T15:13:27.808Z,61.45
2018-06-05T15:15:55.865Z,55.45
2018-06-05T15:18:23.933Z,45.48
2018-06-05T15:20:52.039Z,60.28
2018-06-05T15:23:20.112Z,51.73
2018-06-05T15:25:48.180Z,58.78
2018-06-05T15:28:16.246Z,62.85
2018-06-05T15:30:44.285Z,56.60
2018-06-05T15:33:12.391Z,58.55
2018-06-05T15:35:40.460Z,48.78
2018-06-05T15:38:08.534Z,66.60
2018-06-05T15:40:36.588Z,60.85
2018-06-05T15:43:04.696Z,78.60
2018-06-05T15:45:32.745Z,52.33
2018-06-05T15:48:00.804Z,49.13
2018-06-05T15:50:28.855Z,46.90
2018-06-05T15:52:56.912Z,66.85
2018-06-05T15:55:24.960Z,62.10
2018-06-05T15:57:53.013Z,55.00
2018-06-05T16:00:21.083Z,65.90
2018-06-05T16:02:49.140Z,62.98
2018-06-05T16:05:17.897Z,49.95
2018-06-05T16:07:46.150Z,43.28
2018-06-05T16:10:14.207Z,40.03
2018-06-05T16:12:42.280Z,53.55
2018-06-05T16:15:10.393Z,36.93
2018-06-05T16:17:38.460Z,29.70
2018-06-05T16:20:06.534Z,31.55
2018-06-05T16:22:34.607Z,40.28
2018-06-05T16:25:03.356Z,58.90
2018-06-05T16:27:31.408Z,36.35
2018-06-05T16:29:59.572Z,46.05
2018-06-05T16:32:28.788Z,55.38
2018-06-05T16:34:57.064Z,47.93
2018-06-05T16:37:25.304Z,55.65
2018-06-05T16:39:53.372Z,50.78
2018-06-05T16:42:21.448Z,50.20
2018-06-05T16:44:49.557Z,34.30
2018-06-05T16:47:17.631Z,32.83
2018-06-05T16:49:45.724Z,32.35
2018-06-05T16:52:13.807Z,48.30
2018-06-05T16:54:41.858Z,34.03
2018-06-05T16:57:09.905Z,39.27
2018-06-05T16:59:37.976Z,54.40
2018-06-05T17:02:06.047Z,45.67
2018-06-05T17:04:34.236Z,54.48
2018-06-05T17:07:02.200Z,40.15
2018-06-05T17:09:30.256Z,49.00
2018-06-05T17:11:58.336Z,43.23
2018-06-05T17:14:26.431Z,36.88
2018-06-05T17:16:54.487Z,29.87
2018-06-05T17:19:22.582Z,31.80
2018-06-05T17:21:50.615Z,29.80
2018-06-05T17:24:18.819Z,40.60
2018-06-05T17:26:46.875Z,44.38
2018-06-05T17:29:14.921Z,34.90
2018-06-05T17:31:43.032Z,48.90
2018-06-05T17:34:11.118Z,57.13
2018-06-05T17:36:39.122Z,35.08
2018-06-05T17:39:07.859Z,30.05
2018-06-05T17:41:35.905Z,45.23
2018-06-05T17:44:03.968Z,51.45
2018-06-05T17:46:32.051Z,45.78
2018-06-05T17:49:00.244Z,45.70
2018-06-05T17:51:28.450Z,40.67
2018-06-05T17:53:56.656Z,35.50
2018-06-05T17:56:24.764Z,44.93
2018-06-05T17:58:52.820Z,33.83
2018-06-05T18:01:20.849Z,43.70
2018-06-05T18:03:48.940Z,38.65
2018-06-05T18:06:16.977Z,29.27
2018-06-05T18:08:45.033Z,55.15
2018-06-05T18:11:13.072Z,51.45
2018-06-05T18:13:41.125Z,39.83
2018-06-05T18:16:09.168Z,31.50
2018-06-05T18:18:37.239Z,32.93
2018-06-05T18:21:05.347Z,37.65
2018-06-05T18:23:33.395Z,38.05
2018-06-05T18:26:01.453Z,42.48
2018-06-05T18:28:29.495Z,38.88
2018-06-05T18:30:57.600Z,32.38
2018-06-05T18:33:26.489Z,31.52
2018-06-05T18:35:54.575Z,41.18
2018-06-05T18:38:22.616Z,24.67
2018-06-05T18:40:50.914Z,30.60
2018-06-05T18:43:19.056Z,33.70
2018-06-05T18:45:47.184Z,37.50
2018-06-05T18:48:15.233Z,29.85
2018-06-05T18:50:43.299Z,46.37
2018-06-05T18:53:11.329Z,41.42
2018-06-05T18:55:39.392Z,46.13
2018-06-05T18:58:07.436Z,37.40
2018-06-05T19:00:35.482Z,32.05
2018-06-05T19:03:03.524Z,38.78
2018-06-05T19:05:31.660Z,37.78
2018-06-05T19:07:59.722Z,36.10
2018-06-05T19:10:27.768Z,34.05
2018-06-05T19:12:55.822Z,40.43
2018-06-05T19:15:23.937Z,31.30
2018-06-05T19:17:51.972Z,38.65
2018-06-05T19:20:20.038Z,39.35
2018-06-05T19:22:48.085Z,32.55
2018-06-05T19:25:16.156Z,30.65
2018-06-05T19:27:44.248Z,44.27
2018-06-05T19:30:12.329Z,31.23
2018-06-05T19:32:40.392Z,34.83
2018-06-05T19:35:08.453Z,35.17
2018-06-05T19:37:36.503Z,36.13
2018-06-05T19:40:04.585Z,32.98
2018-06-05T19:42:32.632Z,20.02
2018-06-05T19:45:00.696Z,27.17
2018-06-05T19:47:28.779Z,31.80
2018-06-05T19:49:56.852Z,35.65
2018-06-05T19:52:24.916Z,32.28
2018-06-05T19:54:52.992Z,30.85
2018-06-05T19:57:21.065Z,26.85
2018-06-05T19:59:49.139Z,27.98
2018-06-05T20:02:17.233Z,28.57
2018-06-05T20:04:45.281Z,28.30
2018-06-05T20:07:13.352Z,28.12
2018-06-05T20:09:42.233Z,24.10
2018-06-05T20:12:10.324Z,22.30
2018-06-05T20:14:38.380Z,24.65
2018-06-05T20:17:06.459Z,26.68
2018-06-05T20:19:34.524Z,22.70
2018-06-05T20:22:02.628Z,35.65
2018-06-05T20:24:30.740Z,30.08
2018-06-05T20:26:58.849Z,33.08
2018-06-05T20:29:26.943Z,26.50
2018-06-05T20:31:55.081Z,25.30
2018-06-05T20:34:23.163Z,29.23
2018-06-05T20:36:51.293Z,26.45
2018-06-05T20:39:19.368Z,21.30
2018-06-05T20:41:47.478Z,21.50
2018-06-05T20:44:15.575Z,23.67
2018-06-05T20:46:43.681Z,20.65
2018-06-05T20:49:11.816Z,22.37
2018-06-05T20:51:39.974Z,18.48
2018-06-05T20:54:08.073Z,24.95
2018-06-05T20:56:36.171Z,16.12
2018-06-05T20:59:04.248Z,17.65
2018-06-05T21:01:32.363Z,27.05
2018-06-05T21:04:00.467Z,29.80
2018-06-05T21:06:28.559Z,20.45
2018-06-05T21:08:56.669Z,21.55
2018-06-05T21:11:24.764Z,23.67
2018-06-05T21:13:52.854Z,17.87
2018-06-05T21:16:20.966Z,11.55
2018-06-05T21:18:49.100Z,16.85
2018-06-05T21:21:17.208Z,16.82
2018-06-05T21:23:45.313Z,17.27
2018-06-05T21:26:13.429Z,13.45
2018-06-05T21:28:41.540Z,21.95
2018-06-05T21:31:09.680Z,9.33
2018-06-05T21:33:37.818Z,23.27
2018-06-05T21:36:05.916Z,14.30
2018-06-05T21:38:34.079Z,16.17
2018-06-05T21:41:02.169Z,14.23
2018-06-05T21:43:30.267Z,12.60
2018-06-05T21:45:58.374Z,12.55
2018-06-05T21:48:26.467Z,14.07
2018-06-05T21:50:54.599Z,13.80
2018-06-05T21:53:22.696Z,14.40
2018-06-05T21:55:50.784Z,12.10
2018-06-05T21:58:18.872Z,13.83
2018-06-05T22:00:47.006Z,13.48
2018-06-05T22:03:15.112Z,11.40
2018-06-05T22:05:43.196Z,10.80
2018-06-05T22:08:11.329Z,12.85
2018-06-05T22:10:39.408Z,13.80
2018-06-05T22:13:07.513Z,19.67
2018-06-05T22:15:35.612Z,13.35
2018-06-05T22:18:03.768Z,12.90
2018-06-05T22:20:31.844Z,11.78
2018-06-05T22:22:59.969Z,9.43
2018-06-05T22:25:28.053Z,10.32
2018-06-05T22:27:56.144Z,10.98
2018-06-05T22:30:24.280Z,11.90
2018-06-05T22:32:52.360Z,12.75
2018-06-05T22:35:20.440Z,11.43
2018-06-05T22:37:48.526Z,8.55
2018-06-05T22:40:16.609Z,6.58
2018-06-05T22:42:44.685Z,6.28
2018-06-05T22:45:12.772Z,7.72
2018-06-05T22:47:40.913Z,11.97
2018-06-05T22:50:08.993Z,7.55
2018-06-05T22:52:37.077Z,6.87
2018-06-05T22:55:05.136Z,9.35
2018-06-05T22:57:33.248Z,7.83
2018-06-05T23:00:01.347Z,9.50
2018-06-05T23:02:29.426Z,7.10
2018-06-05T23:04:57.508Z,6.53
2018-06-05T23:07:25.600Z,8.53
2018-06-05T23:09:53.673Z,5.00
2018-06-05T23:12:21.757Z,9.50
2018-06-05T23:14:49.868Z,7.70
2018-06-05T23:17:17.943Z,5.62
2018-06-05T23:19:46.026Z,5.00
2018-06-05T23:22:14.126Z,6.58
2018-06-05T23:24:42.201Z,8.30
2018-06-05T23:27:10.304Z,11.65
2018-06-05T23:29:38.433Z,10.85
2018-06-05T23:32:06.892Z,8.23
2018-06-05T23:34:34.972Z,5.90
2018-06-05T23:37:03.057Z,7.00
2018-06-05T23:39:31.128Z,7.08
2018-06-05T23:41:59.214Z,7.67
2018-06-05T23:44:27.334Z,9.08
2018-06-05T23:46:55.432Z,10.03
2018-06-05T23:49:23.512Z,10.58
2018-06-05T23:51:55.773Z,6.03
2018-06-05T23:54:23.848Z,9.45
2018-06-05T23:56:51.964Z,7.35
2018-06-05T23:59:20.060Z,6.80
